Beech Croft, New York
Current Conditions -  °F | °C
As of 7:53 PM on Saturday 20 Dec 2014 (Local Time) from KFRG Reporting Station
Overcast Overcast  
Wind Chill: 29°   Ceiling: 2600
Heat Index: 33°   Visibility: 10mi
Dew Point: 22°   Wind: 5mph
Humidity: 64%   Direction: 350°N
Pressure: 30.28"   Gusts: NA
Location:  40.8966°N, 73.4362°W
Report Text: KFRG 210053Z 35004KT 10SM OVC026 01/M06 A3028 RMK AO2 SLP254 T00061056
Loading
Personal Weather Stations






























Interactive Weather Map New forecast layout! Learn more

10-Day Weather Forecast

Advertisements
Track Severe Weather on mobile